Cimarron, CO (81220)

9:20 PM MST on February 19, 2017 (GMT -0700)
Bostwick Park | | Change Station

Elev 6932 ft 38.52 °N, 107.75 °W | Updated 41 seconds ago

Overcast
Overcast
32.6 °F
Feels Like 33 °F
N
3.0
Wind Variable Wind from ESE

Today
High -- | Low -- °F
--% Chance of Precip.
Yesterday
High -- | Low -- °F
Precip. -- in
Pressure 29.88 in
Visibility 10.0 miles
Clouds Scattered Clouds 4800 ft
Overcast 7000 ft
Windchill 33 °F
Dew Point 31 °F
Humidity 93%
Rainfall 0.15 in
Snow Depth Not available.
6:55 AM 5:53 PM
Last Quarter, 37% visible
METAR KMTJ 200353Z AUTO 04004KT 10SM -RA SCT048 OVC070 04/01 A2994 RMK AO2 RAB0259E17B52 SLP116 P0001 T00440011
Pressure 29.88 in
Visibility 10.0 miles
Clouds Scattered Clouds 4800 ft
Overcast 7000 ft
Windchill 33 °F
Dew Point 31 °F
Humidity 93%
Rainfall 0.15 in
Snow Depth Not available.
6:55 AM 5:53 PM
Last Quarter, 37% visible
METAR KMTJ 200353Z AUTO 04004KT 10SM -RA SCT048 OVC070 04/01 A2994 RMK AO2 RAB0259E17B52 SLP116 P0001 T00440011

Get Your Daily Forecast Email!

Thanks for signing up!

Be on the lookout for a verification email in your inbox.

You'll start receiving the daily forecast at 8 AM.

×

10-Day Weather Forecast

Almanac

Astronomy

Feb. 19, 2017 Rise Set
Actual Time
Civil Twilight
Nautical Twilight
Astronomical Twilight
Moon
Length of Visible Light
Length of Day
Tomorrow will be .
, % of the Moon is Illuminated

Today's Extremes

State Highs State Lows

Community

WunderPhotos

Upload Photos

1,962,540 photos uploaded!

WunderBlog® & News

Nearby

Air Quality

  Air Quality AQ Index Pollutant
Not available.

Snow Depth

Station Depth Elevation

Earthquake Activity

City Distance Mag. Time & Date
Minimum magnitude displayed is 2.5.

Coastal Water Temperatures

Place Temperature

Stations

Nearby Weather Stations

Station Location Temp. Windchill Dew Point Humidity Wind Precip. Elev Updated Type
                   

Watches & Warnings

There are currently no watches in effect.